Time;durP1;ratioP1;P1;durP2;ratioP2;P2;SDS_P1;SDS_P2;PMS_P1;PMS_P2;Temp;Humidity;BMP_temperature;BMP_pressure;BME280_temperature;BME280_humidity;BME280_pressure;Samples;Min_cycle;Max_cycle;Signal;HPM_P1;HPM_P2
2022/04/07 00:01:44;;;;;;;4.22;1.88;;;;;;;;;;5022653;28;20072;-81
2022/04/07 00:04:11;;;;;;;4.80;2.13;;;;;;;;;;5020897;28;20058;-80
2022/04/07 00:06:40;;;;;;;3.90;2.08;;;;;;;;;;5021036;28;20424;-80
2022/04/07 00:09:07;;;;;;;4.18;2.10;;;;;;;;;;5018607;28;20050;-82
2022/04/07 00:11:33;;;;;;;3.50;1.85;;;;;;;;;;5019177;28;20042;-79
2022/04/07 00:14:00;;;;;;;4.50;2.42;;;;;;;;;;5017884;28;20077;-79
2022/04/07 00:16:27;;;;;;;4.47;2.00;;;;;;;;;;5019719;28;20058;-80
2022/04/07 00:18:54;;;;;;;5.38;2.15;;;;;;;;;;5019642;28;20495;-78
2022/04/07 00:21:26;;;;;;;4.53;1.75;;;;;;;;;;5018948;28;20042;-77
2022/04/07 00:23:55;;;;;;;3.58;1.88;;;;;;;;;;5017794;28;20076;-79
2022/04/07 00:26:21;;;;;;;4.30;1.95;;;;;;;;;;5017852;28;20127;-78
2022/04/07 00:28:51;;;;;;;3.33;1.77;;;;;;;;;;5017462;28;20049;-80
2022/04/07 00:31:17;;;;;;;4.05;2.03;;;;;;;;;;5017985;28;20045;-80
2022/04/07 00:33:44;;;;;;;2.97;1.58;;;;;;;;;;5017646;28;20054;-78
2022/04/07 00:36:11;;;;;;;4.18;1.70;;;;;;;;;;5018808;28;20042;-81
2022/04/07 00:38:38;;;;;;;2.75;1.70;;;;;;;;;;5018143;28;20045;-80
2022/04/07 00:41:06;;;;;;;3.40;1.80;;;;;;;;;;5017781;28;20045;-79
2022/04/07 00:43:36;;;;;;;3.95;2.58;;;;;;;;;;5017983;28;20116;-81
2022/04/07 00:46:04;;;;;;;3.58;1.83;;;;;;;;;;5004362;28;20137;-80
2022/04/07 00:48:35;;;;;;;3.92;1.80;;;;;;;;;;4998488;28;20309;-81
2022/04/07 00:51:02;;;;;;;5.10;2.08;;;;;;;;;;4997468;28;20050;-81
2022/04/07 00:53:29;;;;;;;4.45;1.70;;;;;;;;;;4996998;28;20497;-79
2022/04/07 00:56:00;;;;;;;6.35;2.00;;;;;;;;;;4997575;28;20456;-81
2022/04/07 00:58:28;;;;;;;3.35;1.65;;;;;;;;;;4996745;28;20054;-79
2022/04/07 01:00:56;;;;;;;4.00;2.00;;;;;;;;;;4997328;28;20116;-78
2022/04/07 01:03:22;;;;;;;3.60;1.60;;;;;;;;;;4997362;28;20108;-80
2022/04/07 01:05:50;;;;;;;4.63;1.80;;;;;;;;;;4997119;28;20190;-81
2022/04/07 01:08:32;;;;;;;3.28;1.60;;;;;;;;;;4996687;28;20422;-81
2022/04/07 01:11:00;;;;;;;3.22;1.60;;;;;;;;;;4978127;28;20130;-80
2022/04/07 01:13:43;;;;;;;2.60;1.60;;;;;;;;;;4983032;28;20038;-78
2022/04/07 01:16:10;;;;;;;2.55;1.48;;;;;;;;;;4997405;28;20065;-77
2022/04/07 01:18:37;;;;;;;3.97;1.77;;;;;;;;;;4988665;28;20055;-81
2022/04/07 01:21:04;;;;;;;2.97;1.75;;;;;;;;;;4981274;28;20107;-80
2022/04/07 01:23:35;;;;;;;3.08;1.60;;;;;;;;;;4981189;28;20494;-82
2022/04/07 01:26:03;;;;;;;2.60;1.52;;;;;;;;;;4983848;28;20563;-82
2022/04/07 01:28:30;;;;;;;3.20;1.80;;;;;;;;;;4984009;28;20051;-80
2022/04/07 01:30:57;;;;;;;3.90;1.90;;;;;;;;;;4987562;28;20046;-81
2022/04/07 01:33:24;;;;;;;5.32;2.47;;;;;;;;;;4993196;28;20043;-81
2022/04/07 01:35:51;;;;;;;4.38;2.05;;;;;;;;;;4988642;28;20101;-80
2022/04/07 01:38:19;;;;;;;4.47;2.08;;;;;;;;;;4988616;28;20043;-81
2022/04/07 01:40:48;;;;;;;4.28;1.85;;;;;;;;;;4983617;28;20076;-81
2022/04/07 01:43:16;;;;;;;3.85;1.90;;;;;;;;;;4981784;28;20526;-80
2022/04/07 01:45:43;;;;;;;3.53;2.03;;;;;;;;;;5004008;28;20046;-81
2022/04/07 01:48:11;;;;;;;3.58;2.17;;;;;;;;;;5020325;28;20050;-81
2022/04/07 01:50:39;;;;;;;3.83;1.73;;;;;;;;;;5020528;28;20054;-82
2022/04/07 01:53:06;;;;;;;3.70;2.13;;;;;;;;;;5020380;28;20125;-81
2022/04/07 01:55:33;;;;;;;3.92;1.75;;;;;;;;;;5019529;28;20084;-81
2022/04/07 01:58:00;;;;;;;3.53;1.90;;;;;;;;;;5019508;28;20046;-80
2022/04/07 02:00:28;;;;;;;3.67;1.80;;;;;;;;;;5019097;28;20214;-82
2022/04/07 02:02:55;;;;;;;3.05;1.80;;;;;;;;;;5018270;28;20100;-81
2022/04/07 02:05:22;;;;;;;3.00;1.77;;;;;;;;;;5019878;28;20065;-80
2022/04/07 02:07:48;;;;;;;3.55;1.83;;;;;;;;;;5020847;28;20075;-80
2022/04/07 02:10:16;;;;;;;4.18;1.70;;;;;;;;;;5019530;28;20109;-81
2022/04/07 02:12:43;;;;;;;2.97;1.80;;;;;;;;;;5017737;28;20046;-80
2022/04/07 02:15:11;;;;;;;3.63;2.08;;;;;;;;;;5016117;28;20124;-81
2022/04/07 02:17:40;;;;;;;3.78;2.33;;;;;;;;;;5018453;28;20057;-79
2022/04/07 02:20:08;;;;;;;4.20;2.20;;;;;;;;;;5016833;28;20050;-80
2022/04/07 02:22:35;;;;;;;3.28;1.83;;;;;;;;;;5016347;28;20050;-79
2022/04/07 02:25:02;;;;;;;4.30;2.30;;;;;;;;;;5016456;28;20053;-80
2022/04/07 02:27:36;;;;;;;4.03;1.83;;;;;;;;;;5015726;28;20050;-80
2022/04/07 02:30:03;;;;;;;3.40;1.80;;;;;;;;;;5016672;28;20052;-79
2022/04/07 02:32:30;;;;;;;3.10;1.70;;;;;;;;;;5017550;28;20046;-80
2022/04/07 02:34:58;;;;;;;3.70;1.80;;;;;;;;;;5018616;28;20073;-79
2022/04/07 02:37:25;;;;;;;3.60;2.03;;;;;;;;;;5018451;28;20449;-80
2022/04/07 02:39:53;;;;;;;2.95;1.65;;;;;;;;;;5019184;28;20046;-80
2022/04/07 02:42:20;;;;;;;3.47;1.80;;;;;;;;;;5019537;28;20104;-79
2022/04/07 02:44:47;;;;;;;4.32;1.83;;;;;;;;;;5024165;28;20100;-79
2022/04/07 02:47:14;;;;;;;3.83;2.13;;;;;;;;;;5020156;28;20054;-80
2022/04/07 02:49:41;;;;;;;3.85;1.98;;;;;;;;;;5018769;28;20492;-79
2022/04/07 02:52:11;;;;;;;3.13;1.83;;;;;;;;;;5018848;28;20124;-80
2022/04/07 02:54:38;;;;;;;4.03;1.98;;;;;;;;;;5015791;28;20054;-80
2022/04/07 02:57:06;;;;;;;4.32;2.03;;;;;;;;;;5019795;28;20046;-79
2022/04/07 02:59:34;;;;;;;4.20;2.13;;;;;;;;;;5001886;28;20054;-81
2022/04/07 03:02:01;;;;;;;4.03;2.10;;;;;;;;;;5001389;28;20054;-80
2022/04/07 03:04:27;;;;;;;3.65;2.10;;;;;;;;;;4998419;28;20050;-80
2022/04/07 03:06:54;;;;;;;4.95;2.20;;;;;;;;;;5008067;28;20046;-81
2022/04/07 03:09:23;;;;;;;4.82;2.30;;;;;;;;;;5018738;28;20101;-80
2022/04/07 03:11:50;;;;;;;4.47;2.28;;;;;;;;;;5012102;28;20105;-79
2022/04/07 03:14:16;;;;;;;6.07;2.38;;;;;;;;;;5000681;28;20050;-80
2022/04/07 03:16:48;;;;;;;3.72;2.13;;;;;;;;;;5001341;28;20051;-81
2022/04/07 03:19:15;;;;;;;4.18;2.08;;;;;;;;;;4999706;28;20050;-81
2022/04/07 03:21:42;;;;;;;3.97;2.05;;;;;;;;;;4999975;28;20081;-80
2022/04/07 03:24:09;;;;;;;3.95;1.90;;;;;;;;;;5000951;28;20054;-80
2022/04/07 03:26:38;;;;;;;4.78;1.98;;;;;;;;;;5002664;28;20476;-81
2022/04/07 03:29:04;;;;;;;3.47;1.73;;;;;;;;;;5002425;28;20477;-78
2022/04/07 03:31:31;;;;;;;3.97;1.70;;;;;;;;;;5002026;28;20077;-78
2022/04/07 03:33:58;;;;;;;3.42;1.40;;;;;;;;;;5000014;28;20104;-78
2022/04/07 03:36:25;;;;;;;4.40;1.70;;;;;;;;;;4997593;28;20390;-79
2022/04/07 03:38:52;;;;;;;3.53;1.60;;;;;;;;;;4997474;28;20058;-81
2022/04/07 03:41:18;;;;;;;3.53;1.60;;;;;;;;;;4997824;28;20528;-79
2022/04/07 03:43:46;;;;;;;3.05;1.40;;;;;;;;;;5001973;28;20074;-80
2022/04/07 03:46:16;;;;;;;3.28;1.55;;;;;;;;;;5015669;28;20068;-80
2022/04/07 03:48:42;;;;;;;3.00;1.40;;;;;;;;;;5020154;28;20042;-80
2022/04/07 03:51:09;;;;;;;3.42;1.70;;;;;;;;;;5019947;28;20108;-81
2022/04/07 03:53:36;;;;;;;3.35;1.70;;;;;;;;;;5023511;28;20050;-79
2022/04/07 03:56:03;;;;;;;2.75;1.13;;;;;;;;;;5025617;28;20042;-81
2022/04/07 03:58:30;;;;;;;3.08;1.55;;;;;;;;;;5026245;28;20077;-79
2022/04/07 04:00:59;;;;;;;2.95;1.48;;;;;;;;;;5026526;28;20073;-79
2022/04/07 04:03:26;;;;;;;3.78;1.40;;;;;;;;;;5023270;28;20104;-79
2022/04/07 04:05:52;;;;;;;2.80;1.20;;;;;;;;;;5024025;28;20072;-79
2022/04/07 04:08:19;;;;;;;3.70;1.13;;;;;;;;;;5035277;28;20085;-79
2022/04/07 04:10:46;;;;;;;2.05;1.05;;;;;;;;;;5033833;28;20100;-80
2022/04/07 04:13:13;;;;;;;3.03;1.50;;;;;;;;;;5026639;28;20046;-79
2022/04/07 04:15:40;;;;;;;3.28;1.30;;;;;;;;;;5026310;28;20050;-82
2022/04/07 04:18:08;;;;;;;4.13;1.40;;;;;;;;;;5019212;28;20118;-80
2022/04/07 04:20:35;;;;;;;2.45;1.20;;;;;;;;;;5004071;28;20046;-80
2022/04/07 04:23:01;;;;;;;2.90;1.08;;;;;;;;;;4995236;28;20077;-78
2022/04/07 04:25:28;;;;;;;2.47;1.20;;;;;;;;;;4995272;28;20058;-80
2022/04/07 04:27:55;;;;;;;2.97;1.02;;;;;;;;;;4999818;28;20050;-79
2022/04/07 04:30:22;;;;;;;2.85;1.25;;;;;;;;;;5002040;28;20085;-79
2022/04/07 04:32:49;;;;;;;2.72;1.00;;;;;;;;;;5001443;28;20046;-80
2022/04/07 04:35:17;;;;;;;2.65;1.20;;;;;;;;;;5001366;28;20429;-78
2022/04/07 04:37:44;;;;;;;2.47;1.08;;;;;;;;;;4999734;28;20046;-80
2022/04/07 04:40:11;;;;;;;3.00;1.08;;;;;;;;;;5000802;28;20105;-79
2022/04/07 04:42:40;;;;;;;3.30;1.30;;;;;;;;;;5001558;28;20461;-80
2022/04/07 04:45:08;;;;;;;2.72;0.93;;;;;;;;;;5004234;28;20045;-79
2022/04/07 04:47:35;;;;;;;4.20;1.42;;;;;;;;;;5020566;28;20157;-79
2022/04/07 04:50:04;;;;;;;2.90;1.20;;;;;;;;;;5021639;28;20501;-80
2022/04/07 04:52:32;;;;;;;3.38;1.40;;;;;;;;;;5022564;28;20054;-79
2022/04/07 04:54:59;;;;;;;3.38;1.25;;;;;;;;;;5014533;28;20053;-78
2022/04/07 04:57:26;;;;;;;2.60;1.15;;;;;;;;;;5013986;28;20054;-79
2022/04/07 04:59:53;;;;;;;2.38;1.30;;;;;;;;;;5016178;28;20042;-79
2022/04/07 05:02:20;;;;;;;3.88;1.23;;;;;;;;;;5021131;28;20108;-79
2022/04/07 05:04:47;;;;;;;3.38;1.10;;;;;;;;;;5020885;28;20054;-79
2022/04/07 05:07:13;;;;;;;2.85;1.00;;;;;;;;;;5020842;28;20099;-79
2022/04/07 05:09:42;;;;;;;3.65;1.20;;;;;;;;;;5020366;28;20081;-79
2022/04/07 05:12:09;;;;;;;2.97;1.10;;;;;;;;;;5020816;28;20057;-79
2022/04/07 05:14:36;;;;;;;3.60;1.13;;;;;;;;;;5020733;28;20100;-80
2022/04/07 05:17:03;;;;;;;2.58;1.08;;;;;;;;;;5020481;28;20086;-79
2022/04/07 05:19:30;;;;;;;4.22;1.27;;;;;;;;;;5020431;28;20050;-79
2022/04/07 05:21:56;;;;;;;3.72;1.50;;;;;;;;;;5019233;28;20112;-78
2022/04/07 05:24:26;;;;;;;2.10;1.35;;;;;;;;;;5021550;28;20099;-81
2022/04/07 05:26:54;;;;;;;2.40;1.10;;;;;;;;;;5022980;28;20112;-78
2022/04/07 05:29:21;;;;;;;2.85;1.08;;;;;;;;;;5025851;28;20049;-77
2022/04/07 05:31:48;;;;;;;2.58;0.90;;;;;;;;;;5026651;28;20050;-78
2022/04/07 05:34:15;;;;;;;3.00;1.30;;;;;;;;;;5017607;28;20054;-78
2022/04/07 05:36:42;;;;;;;2.60;1.30;;;;;;;;;;5005249;28;20046;-79
2022/04/07 05:39:09;;;;;;;4.47;1.00;;;;;;;;;;5000823;28;20054;-80
2022/04/07 05:41:36;;;;;;;2.88;0.93;;;;;;;;;;5000547;28;20081;-80
2022/04/07 05:44:05;;;;;;;2.53;1.30;;;;;;;;;;5001603;28;20046;-80
2022/04/07 05:46:31;;;;;;;4.65;1.92;;;;;;;;;;5018767;28;20541;-79
2022/04/07 05:48:58;;;;;;;4.40;1.67;;;;;;;;;;5020656;28;20046;-79
2022/04/07 05:51:25;;;;;;;3.55;1.00;;;;;;;;;;5020261;28;20046;-81
2022/04/07 05:53:52;;;;;;;4.53;1.48;;;;;;;;;;5020279;28;20046;-81
2022/04/07 05:56:18;;;;;;;3.80;1.52;;;;;;;;;;5020124;28;20046;-80
2022/04/07 05:58:45;;;;;;;3.65;1.10;;;;;;;;;;5020079;28;20064;-81
2022/04/07 06:01:14;;;;;;;3.35;1.20;;;;;;;;;;5020358;28;20072;-79
2022/04/07 06:03:40;;;;;;;3.15;1.35;;;;;;;;;;5024981;28;20050;-78
2022/04/07 06:06:07;;;;;;;9.55;4.35;;;;;;;;;;5029648;28;20057;-78
2022/04/07 06:08:34;;;;;;;2.08;1.00;;;;;;;;;;5026136;28;20054;-80
2022/04/07 06:11:02;;;;;;;2.85;1.10;;;;;;;;;;5022168;28;20092;-81
2022/04/07 06:13:28;;;;;;;3.40;1.10;;;;;;;;;;5017706;28;20096;-79
2022/04/07 06:15:55;;;;;;;2.65;1.08;;;;;;;;;;5013764;28;20046;-80
2022/04/07 06:18:23;;;;;;;3.58;1.10;;;;;;;;;;5022224;28;20050;-78
2022/04/07 06:20:50;;;;;;;2.53;1.00;;;;;;;;;;5040595;28;20049;-79
2022/04/07 06:23:17;;;;;;;2.58;1.00;;;;;;;;;;5038849;28;20034;-79
2022/04/07 06:25:44;;;;;;;3.95;1.63;;;;;;;;;;5027868;28;20057;-82
2022/04/07 06:28:12;;;;;;;2.88;1.40;;;;;;;;;;5020623;28;20046;-80
2022/04/07 06:30:39;;;;;;;4.28;1.30;;;;;;;;;;5013681;28;20070;-80
2022/04/07 06:33:06;;;;;;;4.70;1.20;;;;;;;;;;5012693;28;20121;-79
2022/04/07 06:35:34;;;;;;;2.60;1.10;;;;;;;;;;5012512;28;20042;-80
2022/04/07 06:38:01;;;;;;;3.72;1.25;;;;;;;;;;5017984;28;20062;-82
2022/04/07 06:40:29;;;;;;;3.40;1.15;;;;;;;;;;5017903;28;20049;-78
2022/04/07 06:42:58;;;;;;;3.80;1.08;;;;;;;;;;5018668;28;20050;-81
2022/04/07 06:45:25;;;;;;;3.08;1.00;;;;;;;;;;5010883;28;20444;-80
2022/04/07 06:47:52;;;;;;;2.38;1.35;;;;;;;;;;5012139;28;20042;-80
2022/04/07 06:50:20;;;;;;;3.08;1.10;;;;;;;;;;5001673;28;20054;-82
2022/04/07 06:52:49;;;;;;;5.18;1.27;;;;;;;;;;5002613;28;20050;-81
2022/04/07 06:55:17;;;;;;;1.80;0.82;;;;;;;;;;5001446;28;20046;-81
2022/04/07 06:57:51;;;;;;;4.18;1.35;;;;;;;;;;5000905;28;20501;-81
2022/04/07 07:00:18;;;;;;;3.05;0.90;;;;;;;;;;5011575;28;20054;-77
2022/04/07 07:02:46;;;;;;;2.55;1.00;;;;;;;;;;5017938;28;20054;-77
2022/04/07 07:05:13;;;;;;;2.53;1.15;;;;;;;;;;5003572;28;20554;-79
2022/04/07 07:07:40;;;;;;;3.30;1.17;;;;;;;;;;4995999;28;20429;-79
2022/04/07 07:10:08;;;;;;;3.03;1.38;;;;;;;;;;5000600;28;20057;-79
2022/04/07 07:12:35;;;;;;;1.20;0.60;;;;;;;;;;4997879;28;20073;-80
2022/04/07 07:15:02;;;;;;;2.40;0.70;;;;;;;;;;4998113;28;20125;-80
2022/04/07 07:17:33;;;;;;;2.10;0.80;;;;;;;;;;4997735;28;20050;-80
2022/04/07 07:20:04;;;;;;;2.63;0.88;;;;;;;;;;4998636;28;20104;-80
2022/04/07 07:22:31;;;;;;;2.67;0.90;;;;;;;;;;4998026;28;20520;-80
2022/04/07 07:24:58;;;;;;;1.27;0.57;;;;;;;;;;4997260;28;20042;-80
2022/04/07 07:27:26;;;;;;;1.38;0.70;;;;;;;;;;5000916;28;20050;-78
2022/04/07 07:29:53;;;;;;;0.95;0.60;;;;;;;;;;5005893;28;20069;-79
2022/04/07 07:32:20;;;;;;;4.07;0.60;;;;;;;;;;5007558;28;20054;-82
2022/04/07 07:34:47;;;;;;;3.22;0.60;;;;;;;;;;5001886;28;20050;-82
2022/04/07 07:37:18;;;;;;;4.47;1.00;;;;;;;;;;4997066;28;20096;-80
2022/04/07 07:39:45;;;;;;;3.38;0.70;;;;;;;;;;4999030;28;20084;-79
2022/04/07 07:42:12;;;;;;;1.15;0.50;;;;;;;;;;4999156;28;20058;-79
2022/04/07 07:44:40;;;;;;;1.70;0.47;;;;;;;;;;4999074;28;20387;-80
2022/04/07 07:47:07;;;;;;;2.28;0.60;;;;;;;;;;4998537;28;20058;-80
2022/04/07 07:49:35;;;;;;;2.90;0.52;;;;;;;;;;5000375;28;20082;-80
2022/04/07 07:52:02;;;;;;;2.08;0.80;;;;;;;;;;4997495;28;20525;-80
2022/04/07 07:54:28;;;;;;;1.95;0.60;;;;;;;;;;4996709;28;20109;-81
2022/04/07 07:56:55;;;;;;;3.30;0.70;;;;;;;;;;4998391;28;20050;-81
2022/04/07 07:59:23;;;;;;;2.15;0.60;;;;;;;;;;4998697;28;20063;-79
2022/04/07 08:01:51;;;;;;;1.45;0.50;;;;;;;;;;4997393;28;20112;-80
2022/04/07 08:04:18;;;;;;;1.55;0.70;;;;;;;;;;4998535;28;20121;-79
2022/04/07 08:06:45;;;;;;;3.83;1.10;;;;;;;;;;4998430;28;20690;-80
2022/04/07 08:09:13;;;;;;;1.75;0.80;;;;;;;;;;4997469;28;20050;-80
2022/04/07 08:11:41;;;;;;;5.03;0.70;;;;;;;;;;4997338;28;20114;-80
2022/04/07 08:14:08;;;;;;;4.70;0.73;;;;;;;;;;4996005;28;20125;-79
2022/04/07 08:16:35;;;;;;;1.52;0.70;;;;;;;;;;4996058;28;20046;-80
2022/04/07 08:19:03;;;;;;;4.35;0.60;;;;;;;;;;4997092;28;20050;-80
2022/04/07 08:21:30;;;;;;;4.55;1.05;;;;;;;;;;4996885;28;20050;-79
2022/04/07 08:23:57;;;;;;;4.75;1.50;;;;;;;;;;4995695;28;20173;-80
2022/04/07 08:26:24;;;;;;;3.08;0.60;;;;;;;;;;4994513;28;20050;-80
2022/04/07 08:28:50;;;;;;;2.50;0.60;;;;;;;;;;4996415;28;20046;-80
2022/04/07 08:31:17;;;;;;;6.03;0.50;;;;;;;;;;4996710;28;20073;-79
2022/04/07 08:33:44;;;;;;;3.03;0.73;;;;;;;;;;4993076;28;20073;-80
2022/04/07 08:36:12;;;;;;;1.60;0.50;;;;;;;;;;4997202;28;20077;-80
2022/04/07 08:38:39;;;;;;;1.13;0.50;;;;;;;;;;4995655;28;20077;-80
2022/04/07 08:41:09;;;;;;;5.03;0.70;;;;;;;;;;4996035;28;20502;-79
2022/04/07 08:43:38;;;;;;;3.95;0.68;;;;;;;;;;4995423;28;20073;-78
2022/04/07 08:46:07;;;;;;;0.90;0.52;;;;;;;;;;4995214;28;20093;-79
2022/04/07 08:48:36;;;;;;;1.25;0.55;;;;;;;;;;4995818;28;20057;-79
2022/04/07 08:51:04;;;;;;;3.60;0.95;;;;;;;;;;4997026;28;20478;-79
2022/04/07 08:53:33;;;;;;;3.92;0.70;;;;;;;;;;4997104;28;20050;-80
2022/04/07 08:56:01;;;;;;;3.75;0.63;;;;;;;;;;4995157;28;20096;-80
2022/04/07 08:58:28;;;;;;;6.13;2.67;;;;;;;;;;4994817;28;20042;-80
2022/04/07 09:00:55;;;;;;;2.10;0.63;;;;;;;;;;4995703;28;20116;-80
2022/04/07 09:03:21;;;;;;;2.53;0.82;;;;;;;;;;4995051;28;20047;-79
2022/04/07 09:05:55;;;;;;;2.40;1.00;;;;;;;;;;4996182;28;20047;-79
2022/04/07 09:08:30;;;;;;;2.80;0.77;;;;;;;;;;4993628;28;20105;-79
2022/04/07 09:11:00;;;;;;;2.20;0.60;;;;;;;;;;4994197;28;20077;-79
2022/04/07 09:13:34;;;;;;;2.47;0.70;;;;;;;;;;4993674;28;20056;-79
2022/04/07 09:16:02;;;;;;;3.22;0.93;;;;;;;;;;4993089;28;20064;-79
2022/04/07 09:18:29;;;;;;;4.22;0.65;;;;;;;;;;4991548;28;20050;-78
2022/04/07 09:20:55;;;;;;;2.55;0.70;;;;;;;;;;4993717;28;20046;-80
2022/04/07 09:23:22;;;;;;;3.00;1.10;;;;;;;;;;4994434;28;20042;-80
2022/04/07 09:25:50;;;;;;;2.10;0.82;;;;;;;;;;4995278;28;20078;-81
2022/04/07 09:28:28;;;;;;;3.17;0.77;;;;;;;;;;4996298;28;20054;-81
2022/04/07 09:30:57;;;;;;;1.85;0.77;;;;;;;;;;4997481;28;20093;-81
2022/04/07 09:33:25;;;;;;;2.63;0.80;;;;;;;;;;5009687;28;20046;-78
2022/04/07 09:36:02;;;;;;;2.53;0.70;;;;;;;;;;5016270;28;20078;-78
2022/04/07 09:38:31;;;;;;;6.00;1.80;;;;;;;;;;5002919;28;20054;-81
2022/04/07 09:41:09;;;;;;;4.22;1.23;;;;;;;;;;4996525;28;20050;-78
2022/04/07 09:43:48;;;;;;;1.75;0.65;;;;;;;;;;4997620;28;20046;-78
2022/04/07 09:46:15;;;;;;;1.25;0.60;;;;;;;;;;5015983;28;20058;-80
2022/04/07 09:49:00;;;;;;;2.08;0.60;;;;;;;;;;5020527;28;20098;-81
2022/04/07 09:51:27;;;;;;;3.15;0.63;;;;;;;;;;4998758;28;20134;-80
2022/04/07 09:53:56;;;;;;;2.10;0.57;;;;;;;;;;5006860;28;20094;-80
2022/04/07 09:56:27;;;;;;;2.45;0.63;;;;;;;;;;5016707;28;20078;-78
2022/04/07 09:58:55;;;;;;;2.20;0.70;;;;;;;;;;5006203;28;20093;-79
2022/04/07 10:01:23;;;;;;;2.28;0.88;;;;;;;;;;4999593;28;20051;-79
2022/04/07 10:03:51;;;;;;;2.85;0.77;;;;;;;;;;4999184;28;20102;-78
2022/04/07 10:06:19;;;;;;;4.57;1.10;;;;;;;;;;4997142;28;20097;-79
2022/04/07 10:08:49;;;;;;;3.17;0.85;;;;;;;;;;4997969;28;20112;-78
2022/04/07 10:11:16;;;;;;;1.70;0.73;;;;;;;;;;4997135;28;20468;-82
2022/04/07 10:13:44;;;;;;;1.58;0.38;;;;;;;;;;4998796;28;20049;-77
2022/04/07 10:16:12;;;;;;;6.07;0.73;;;;;;;;;;4997357;28;20108;-79
2022/04/07 10:18:45;;;;;;;10.52;2.08;;;;;;;;;;4998206;28;20050;-81
2022/04/07 10:21:23;;;;;;;6.93;3.72;;;;;;;;;;4997751;28;20046;-80
2022/04/07 10:24:03;;;;;;;18.55;9.63;;;;;;;;;;4999370;28;20105;-78
2022/04/07 10:26:30;;;;;;;81.55;50.03;;;;;;;;;;5013312;28;20042;-78
2022/04/07 10:28:57;;;;;;;11.38;5.65;;;;;;;;;;5000304;28;20051;-81
2022/04/07 10:31:26;;;;;;;19.75;11.27;;;;;;;;;;5002331;28;20050;-79
2022/04/07 10:34:05;;;;;;;17.38;9.93;;;;;;;;;;5003159;28;20047;-78
2022/04/07 10:36:38;;;;;;;11.98;6.07;;;;;;;;;;5006752;28;20065;-78
2022/04/07 10:39:12;;;;;;;12.88;4.72;;;;;;;;;;5011647;28;20046;-80
2022/04/07 10:41:51;;;;;;;9.02;3.78;;;;;;;;;;5011714;28;20812;-78
2022/04/07 10:44:20;;;;;;;8.73;3.25;;;;;;;;;;5008800;28;20046;-78
2022/04/07 10:46:48;;;;;;;10.05;2.63;;;;;;;;;;4982072;28;20050;-80
2022/04/07 10:49:22;;;;;;;4.38;1.70;;;;;;;;;;4979850;28;20055;-79
2022/04/07 10:51:54;;;;;;;6.80;1.60;;;;;;;;;;4978163;28;20069;-81
2022/04/07 10:54:21;;;;;;;2.22;0.82;;;;;;;;;;4974167;28;20054;-78
2022/04/07 10:56:49;;;;;;;2.78;0.65;;;;;;;;;;4975149;28;20078;-78
2022/04/07 10:59:21;;;;;;;4.13;0.98;;;;;;;;;;4987960;28;20046;-78
2022/04/07 11:01:59;;;;;;;1.65;0.50;;;;;;;;;;5009589;28;20104;-78
2022/04/07 11:05:04;;;;;;;3.53;0.80;;;;;;;;;;5013289;28;20053;-79
2022/04/07 11:07:39;;;;;;;7.00;2.30;;;;;;;;;;5015716;28;20421;-79
2022/04/07 11:10:11;;;;;;;2.08;0.77;;;;;;;;;;5014143;28;20050;-79
2022/04/07 11:12:42;;;;;;;1.80;0.55;;;;;;;;;;5015348;28;20053;-79
2022/04/07 11:15:34;;;;;;;5.05;0.70;;;;;;;;;;5016269;28;20117;-80
2022/04/07 11:18:30;;;;;;;1.45;0.63;;;;;;;;;;5016263;28;20042;-80
2022/04/07 11:21:08;;;;;;;2.97;0.77;;;;;;;;;;4986634;28;20046;-79
2022/04/07 11:23:52;;;;;;;1.85;1.15;;;;;;;;;;4993701;28;20050;-79
2022/04/07 11:26:26;;;;;;;3.08;0.70;;;;;;;;;;4994441;28;20046;-79
2022/04/07 11:29:14;;;;;;;2.83;0.70;;;;;;;;;;4989232;28;20395;-80
2022/04/07 11:31:43;;;;;;;2.05;0.82;;;;;;;;;;4973169;28;20412;-81
2022/04/07 11:34:42;;;;;;;1.10;0.50;;;;;;;;;;4976556;28;20491;-79
2022/04/07 11:37:10;;;;;;;2.72;0.70;;;;;;;;;;4975373;28;20094;-79
2022/04/07 11:39:39;;;;;;;2.30;0.55;;;;;;;;;;4978527;28;20047;-79
2022/04/07 11:42:06;;;;;;;4.53;0.77;;;;;;;;;;4977683;28;20308;-79
2022/04/07 11:44:33;;;;;;;2.03;0.50;;;;;;;;;;4976050;28;20088;-78
2022/04/07 11:47:00;;;;;;;3.38;0.70;;;;;;;;;;4973793;28;20110;-78
2022/04/07 11:49:28;;;;;;;2.00;0.50;;;;;;;;;;4974615;28;20047;-79
2022/04/07 11:51:56;;;;;;;3.97;0.80;;;;;;;;;;4983928;28;20052;-79
2022/04/07 11:54:24;;;;;;;3.33;0.60;;;;;;;;;;5013524;28;20108;-79
2022/04/07 11:56:52;;;;;;;4.88;0.57;;;;;;;;;;5013978;28;20052;-78
2022/04/07 11:59:20;;;;;;;3.13;0.50;;;;;;;;;;5014801;28;20042;-79
2022/04/07 12:01:47;;;;;;;3.30;0.70;;;;;;;;;;5016949;28;20044;-78
2022/04/07 12:04:15;;;;;;;1.77;0.63;;;;;;;;;;5016598;28;20046;-80
2022/04/07 12:06:44;;;;;;;3.30;0.70;;;;;;;;;;5017219;28;20050;-79
2022/04/07 12:09:13;;;;;;;2.30;0.68;;;;;;;;;;5010909;28;20060;-81
2022/04/07 12:11:41;;;;;;;0.80;0.40;;;;;;;;;;4997427;28;20082;-82
2022/04/07 12:14:10;;;;;;;2.83;0.50;;;;;;;;;;4996366;28;20108;-80
2022/04/07 12:16:44;;;;;;;2.53;0.95;;;;;;;;;;4997306;28;20620;-80
2022/04/07 12:19:11;;;;;;;10.02;5.82;;;;;;;;;;4995730;28;20501;-81
2022/04/07 12:21:52;;;;;;;5.30;3.38;;;;;;;;;;4997116;28;20057;-80
2022/04/07 12:24:20;;;;;;;;;;;;;;;;;;4997014;28;20079;-80
2022/04/07 12:26:48;;;;;;;3.13;0.70;;;;;;;;;;5014582;28;19925;-80
2022/04/07 12:29:16;;;;;;;1.73;0.70;;;;;;;;;;5014649;28;20520;-79
2022/04/07 12:31:43;;;;;;;1.75;0.70;;;;;;;;;;5015540;28;20049;-79
2022/04/07 12:34:12;;;;;;;4.30;0.70;;;;;;;;;;5018489;28;20050;-79
2022/04/07 12:36:40;;;;;;;2.28;0.50;;;;;;;;;;5017066;28;20448;-81
2022/04/07 12:39:09;;;;;;;1.70;0.60;;;;;;;;;;5000660;28;20054;-79
2022/04/07 12:41:40;;;;;;;2.58;1.08;;;;;;;;;;4988935;28;20609;-82
2022/04/07 12:44:07;;;;;;;2.05;0.50;;;;;;;;;;4995834;28;20057;-80
2022/04/07 12:46:46;;;;;;;2.90;0.85;;;;;;;;;;4996067;28;20089;-77
2022/04/07 12:49:13;;;;;;;3.65;0.52;;;;;;;;;;5014695;28;20058;-78
2022/04/07 12:51:42;;;;;;;1.55;0.68;;;;;;;;;;5015208;28;20041;-77
2022/04/07 12:54:10;;;;;;;1.90;0.52;;;;;;;;;;5011315;28;20121;-78
2022/04/07 12:56:40;;;;;;;2.45;0.60;;;;;;;;;;5008880;28;20054;-81
2022/04/07 12:59:09;;;;;;;3.22;0.60;;;;;;;;;;4998042;28;20085;-80
2022/04/07 13:01:36;;;;;;;2.30;0.55;;;;;;;;;;4995120;28;20046;-79
2022/04/07 13:04:08;;;;;;;6.60;0.80;;;;;;;;;;4996921;28;20074;-79
2022/04/07 13:06:35;;;;;;;1.80;0.50;;;;;;;;;;4996102;28;20050;-80
2022/04/07 13:09:03;;;;;;;4.03;0.88;;;;;;;;;;4995532;28;20141;-79
2022/04/07 13:11:36;;;;;;;2.83;0.77;;;;;;;;;;4995358;28;20054;-80
2022/04/07 13:14:06;;;;;;;2.15;0.70;;;;;;;;;;4994491;28;20105;-80
2022/04/07 13:16:33;;;;;;;20.08;1.48;;;;;;;;;;4995441;28;20050;-80
2022/04/07 13:19:00;;;;;;;3.20;0.90;;;;;;;;;;4995199;28;20050;-81
2022/04/07 13:21:27;;;;;;;5.40;0.80;;;;;;;;;;4998409;28;20105;-80
2022/04/07 13:23:54;;;;;;;4.55;0.60;;;;;;;;;;5000205;28;20054;-79
2022/04/07 13:26:22;;;;;;;2.28;0.60;;;;;;;;;;4998549;28;20045;-79
2022/04/07 13:28:49;;;;;;;2.58;0.60;;;;;;;;;;4998713;28;20057;-77
2022/04/07 13:31:18;;;;;;;2.10;0.40;;;;;;;;;;4997822;28;20498;-78
2022/04/07 13:33:46;;;;;;;2.83;0.50;;;;;;;;;;4998004;28;20054;-78
2022/04/07 13:36:13;;;;;;;4.55;0.60;;;;;;;;;;4998188;28;20105;-81
2022/04/07 13:38:40;;;;;;;5.57;1.05;;;;;;;;;;4998003;28;20057;-77
2022/04/07 13:41:07;;;;;;;4.20;0.60;;;;;;;;;;4997491;28;20043;-79
2022/04/07 13:43:35;;;;;;;2.35;0.52;;;;;;;;;;4997404;28;20540;-78
2022/04/07 13:46:02;;;;;;;1.55;0.60;;;;;;;;;;4996907;28;20104;-79
2022/04/07 13:48:30;;;;;;;2.42;0.70;;;;;;;;;;4996137;28;20527;-78
2022/04/07 13:50:57;;;;;;;6.03;0.60;;;;;;;;;;4996962;28;20058;-80
2022/04/07 13:53:24;;;;;;;1.33;0.40;;;;;;;;;;4996938;28;20046;-79
2022/04/07 13:55:51;;;;;;;3.15;0.60;;;;;;;;;;4998773;28;20067;-81
2022/04/07 13:58:17;;;;;;;1.70;0.52;;;;;;;;;;4998014;28;20493;-79
2022/04/07 14:00:45;;;;;;;3.17;0.60;;;;;;;;;;4999505;28;20046;-80
2022/04/07 14:03:12;;;;;;;1.77;0.60;;;;;;;;;;4999387;28;20053;-79
2022/04/07 14:05:40;;;;;;;2.58;0.57;;;;;;;;;;4997274;28;20050;-78
2022/04/07 14:08:13;;;;;;;1.83;0.50;;;;;;;;;;4998258;28;20567;-79
2022/04/07 14:10:41;;;;;;;3.63;0.55;;;;;;;;;;5000625;28;20047;-80
2022/04/07 14:13:08;;;;;;;1.17;0.40;;;;;;;;;;5002287;28;20080;-77
2022/04/07 14:15:35;;;;;;;1.75;0.40;;;;;;;;;;5001808;28;20050;-78
2022/04/07 14:18:01;;;;;;;3.25;0.73;;;;;;;;;;5002416;28;20053;-79
2022/04/07 14:20:28;;;;;;;1.55;0.60;;;;;;;;;;4997576;28;20050;-79
2022/04/07 14:22:56;;;;;;;1.90;0.60;;;;;;;;;;4999658;28;20069;-78
2022/04/07 14:25:23;;;;;;;0.75;0.45;;;;;;;;;;5000256;28;20046;-80
2022/04/07 14:27:50;;;;;;;1.50;0.50;;;;;;;;;;5000709;28;20136;-78
2022/04/07 14:30:17;;;;;;;1.20;0.43;;;;;;;;;;5000662;28;20457;-81
2022/04/07 14:32:46;;;;;;;5.65;0.93;;;;;;;;;;5000368;28;20042;-79
2022/04/07 14:35:14;;;;;;;1.05;0.38;;;;;;;;;;4999143;28;20061;-78
2022/04/07 14:37:41;;;;;;;1.25;0.40;;;;;;;;;;4998542;28;20050;-79
2022/04/07 14:40:11;;;;;;;1.33;0.60;;;;;;;;;;5002073;28;20046;-79
2022/04/07 14:42:37;;;;;;;1.77;0.60;;;;;;;;;;4998932;28;20046;-79
2022/04/07 14:45:05;;;;;;;1.52;0.65;;;;;;;;;;5001303;28;20054;-79
2022/04/07 14:47:32;;;;;;;1.83;0.63;;;;;;;;;;5006689;28;20129;-78
2022/04/07 14:49:59;;;;;;;1.02;0.40;;;;;;;;;;5005260;28;20081;-77
2022/04/07 14:52:26;;;;;;;4.22;0.90;;;;;;;;;;5000704;28;20050;-77